sensor_id;sensor_type;location;lat;lon;timestamp;P1;durP1;ratioP1;P2;durP2;ratioP2
64842;SDS011;51310;52.198;5.422;2023-10-31T00:01:10;4.47;;;1.20;;
64842;SDS011;51310;52.198;5.422;2023-10-31T00:03:35;7.47;;;1.50;;
64842;SDS011;51310;52.198;5.422;2023-10-31T00:06:01;3.58;;;0.82;;
64842;SDS011;51310;52.198;5.422;2023-10-31T00:08:28;3.38;;;1.10;;
64842;SDS011;51310;52.198;5.422;2023-10-31T00:10:53;1.45;;;0.75;;
64842;SDS011;51310;52.198;5.422;2023-10-31T00:13:19;2.30;;;1.15;;
64842;SDS011;51310;52.198;5.422;2023-10-31T00:15:45;5.03;;;0.70;;
64842;SDS011;51310;52.198;5.422;2023-10-31T00:18:11;7.70;;;1.88;;
64842;SDS011;51310;52.198;5.422;2023-10-31T00:20:37;5.07;;;1.42;;
64842;SDS011;51310;52.198;5.422;2023-10-31T00:23:03;4.25;;;1.50;;
64842;SDS011;51310;52.198;5.422;2023-10-31T00:25:29;2.13;;;1.13;;
64842;SDS011;51310;52.198;5.422;2023-10-31T00:27:55;9.00;;;0.93;;
64842;SDS011;51310;52.198;5.422;2023-10-31T00:30:20;3.35;;;1.20;;
64842;SDS011;51310;52.198;5.422;2023-10-31T00:32:46;9.35;;;1.30;;
64842;SDS011;51310;52.198;5.422;2023-10-31T00:35:12;10.35;;;2.03;;
64842;SDS011;51310;52.198;5.422;2023-10-31T00:37:38;7.45;;;1.10;;
64842;SDS011;51310;52.198;5.422;2023-10-31T00:40:06;5.38;;;1.13;;
64842;SDS011;51310;52.198;5.422;2023-10-31T00:42:36;8.20;;;1.50;;
64842;SDS011;51310;52.198;5.422;2023-10-31T00:45:03;5.47;;;1.80;;
64842;SDS011;51310;52.198;5.422;2023-10-31T00:47:29;14.02;;;2.38;;
64842;SDS011;51310;52.198;5.422;2023-10-31T00:49:55;6.75;;;3.33;;
64842;SDS011;51310;52.198;5.422;2023-10-31T00:52:21;9.15;;;4.35;;
64842;SDS011;51310;52.198;5.422;2023-10-31T00:54:47;16.80;;;5.97;;
64842;SDS011;51310;52.198;5.422;2023-10-31T00:57:13;15.60;;;6.28;;
64842;SDS011;51310;52.198;5.422;2023-10-31T00:59:39;19.00;;;7.32;;
64842;SDS011;51310;52.198;5.422;2023-10-31T01:02:05;20.02;;;7.95;;
64842;SDS011;51310;52.198;5.422;2023-10-31T01:04:31;19.52;;;8.52;;
64842;SDS011;51310;52.198;5.422;2023-10-31T01:06:57;22.58;;;9.52;;
64842;SDS011;51310;52.198;5.422;2023-10-31T01:09:23;23.63;;;10.40;;
64842;SDS011;51310;52.198;5.422;2023-10-31T01:11:48;27.05;;;9.38;;
64842;SDS011;51310;52.198;5.422;2023-10-31T01:14:14;25.20;;;10.52;;
64842;SDS011;51310;52.198;5.422;2023-10-31T01:16:40;23.40;;;10.35;;
64842;SDS011;51310;52.198;5.422;2023-10-31T01:19:06;31.58;;;10.00;;
64842;SDS011;51310;52.198;5.422;2023-10-31T01:21:32;32.60;;;12.40;;
64842;SDS011;51310;52.198;5.422;2023-10-31T01:23:58;26.92;;;11.90;;
64842;SDS011;51310;52.198;5.422;2023-10-31T01:26:24;29.60;;;11.57;;
64842;SDS011;51310;52.198;5.422;2023-10-31T01:28:51;34.65;;;12.38;;
64842;SDS011;51310;52.198;5.422;2023-10-31T01:31:17;25.88;;;12.52;;
64842;SDS011;51310;52.198;5.422;2023-10-31T01:33:43;29.08;;;12.77;;
64842;SDS011;51310;52.198;5.422;2023-10-31T01:36:10;38.40;;;12.23;;
64842;SDS011;51310;52.198;5.422;2023-10-31T01:38:37;34.47;;;11.73;;
64842;SDS011;51310;52.198;5.422;2023-10-31T01:41:04;27.35;;;9.25;;
64842;SDS011;51310;52.198;5.422;2023-10-31T01:46:01;19.45;;;7.93;;
64842;SDS011;51310;52.198;5.422;2023-10-31T01:48:29;11.15;;;6.03;;
64842;SDS011;51310;52.198;5.422;2023-10-31T01:50:58;15.65;;;5.38;;
64842;SDS011;51310;52.198;5.422;2023-10-31T01:53:28;10.38;;;4.95;;
64842;SDS011;51310;52.198;5.422;2023-10-31T01:55:59;7.30;;;3.78;;
64842;SDS011;51310;52.198;5.422;2023-10-31T01:58:28;8.30;;;3.65;;
64842;SDS011;51310;52.198;5.422;2023-10-31T02:00:59;11.82;;;3.83;;
64842;SDS011;51310;52.198;5.422;2023-10-31T02:03:29;4.30;;;2.15;;
64842;SDS011;51310;52.198;5.422;2023-10-31T02:05:56;7.28;;;2.78;;
64842;SDS011;51310;52.198;5.422;2023-10-31T02:08:22;12.25;;;3.03;;
64842;SDS011;51310;52.198;5.422;2023-10-31T02:10:50;8.77;;;4.57;;
64842;SDS011;51310;52.198;5.422;2023-10-31T02:13:17;12.25;;;5.53;;
64842;SDS011;51310;52.198;5.422;2023-10-31T02:15:44;14.93;;;5.68;;
64842;SDS011;51310;52.198;5.422;2023-10-31T02:18:11;10.40;;;4.95;;
64842;SDS011;51310;52.198;5.422;2023-10-31T02:20:37;13.13;;;6.07;;
64842;SDS011;51310;52.198;5.422;2023-10-31T02:23:03;13.18;;;5.13;;
64842;SDS011;51310;52.198;5.422;2023-10-31T02:25:30;10.60;;;5.10;;
64842;SDS011;51310;52.198;5.422;2023-10-31T02:27:56;14.15;;;4.53;;
64842;SDS011;51310;52.198;5.422;2023-10-31T02:30:23;9.90;;;4.80;;
64842;SDS011;51310;52.198;5.422;2023-10-31T02:32:50;18.05;;;6.05;;
64842;SDS011;51310;52.198;5.422;2023-10-31T02:35:16;12.38;;;6.60;;
64842;SDS011;51310;52.198;5.422;2023-10-31T02:37:44;15.20;;;7.43;;
64842;SDS011;51310;52.198;5.422;2023-10-31T02:40:13;15.88;;;8.13;;
64842;SDS011;51310;52.198;5.422;2023-10-31T02:42:40;16.08;;;8.73;;
64842;SDS011;51310;52.198;5.422;2023-10-31T02:45:06;18.98;;;9.75;;
64842;SDS011;51310;52.198;5.422;2023-10-31T02:47:33;30.95;;;11.40;;
64842;SDS011;51310;52.198;5.422;2023-10-31T02:49:59;21.08;;;10.50;;
64842;SDS011;51310;52.198;5.422;2023-10-31T02:52:25;21.85;;;12.57;;
64842;SDS011;51310;52.198;5.422;2023-10-31T02:54:51;27.23;;;12.60;;
64842;SDS011;51310;52.198;5.422;2023-10-31T02:57:17;25.00;;;11.88;;
64842;SDS011;51310;52.198;5.422;2023-10-31T02:59:42;30.00;;;13.45;;
64842;SDS011;51310;52.198;5.422;2023-10-31T03:02:08;26.33;;;12.32;;
64842;SDS011;51310;52.198;5.422;2023-10-31T03:04:36;26.92;;;13.52;;
64842;SDS011;51310;52.198;5.422;2023-10-31T03:07:02;26.98;;;13.13;;
64842;SDS011;51310;52.198;5.422;2023-10-31T03:09:28;28.23;;;12.65;;
64842;SDS011;51310;52.198;5.422;2023-10-31T03:11:54;27.70;;;11.98;;
64842;SDS011;51310;52.198;5.422;2023-10-31T03:14:20;26.05;;;11.93;;
64842;SDS011;51310;52.198;5.422;2023-10-31T03:16:45;27.05;;;12.07;;
64842;SDS011;51310;52.198;5.422;2023-10-31T03:19:11;23.58;;;11.52;;
64842;SDS011;51310;52.198;5.422;2023-10-31T03:21:37;18.60;;;9.98;;
64842;SDS011;51310;52.198;5.422;2023-10-31T03:24:04;28.65;;;10.07;;
64842;SDS011;51310;52.198;5.422;2023-10-31T03:26:30;19.33;;;7.88;;
64842;SDS011;51310;52.198;5.422;2023-10-31T03:28:56;19.88;;;8.48;;
64842;SDS011;51310;52.198;5.422;2023-10-31T03:31:22;15.30;;;7.22;;
64842;SDS011;51310;52.198;5.422;2023-10-31T03:33:49;17.80;;;7.15;;
64842;SDS011;51310;52.198;5.422;2023-10-31T03:36:16;13.90;;;5.68;;
64842;SDS011;51310;52.198;5.422;2023-10-31T03:38:42;15.32;;;4.45;;
64842;SDS011;51310;52.198;5.422;2023-10-31T03:41:08;13.50;;;5.82;;
64842;SDS011;51310;52.198;5.422;2023-10-31T03:43:35;13.95;;;4.38;;
64842;SDS011;51310;52.198;5.422;2023-10-31T03:46:00;6.60;;;3.22;;
64842;SDS011;51310;52.198;5.422;2023-10-31T03:48:27;14.50;;;5.25;;
64842;SDS011;51310;52.198;5.422;2023-10-31T03:50:52;8.35;;;3.20;;
64842;SDS011;51310;52.198;5.422;2023-10-31T03:53:19;10.50;;;3.83;;
64842;SDS011;51310;52.198;5.422;2023-10-31T03:55:44;11.48;;;3.78;;
64842;SDS011;51310;52.198;5.422;2023-10-31T03:58:10;9.63;;;3.33;;
64842;SDS011;51310;52.198;5.422;2023-10-31T04:00:36;8.02;;;4.03;;
64842;SDS011;51310;52.198;5.422;2023-10-31T04:03:04;9.10;;;2.80;;
64842;SDS011;51310;52.198;5.422;2023-10-31T04:05:30;6.63;;;2.58;;
64842;SDS011;51310;52.198;5.422;2023-10-31T04:07:56;7.03;;;2.47;;
64842;SDS011;51310;52.198;5.422;2023-10-31T04:10:22;6.07;;;2.55;;
64842;SDS011;51310;52.198;5.422;2023-10-31T04:12:48;5.13;;;2.78;;
64842;SDS011;51310;52.198;5.422;2023-10-31T04:15:14;5.28;;;1.92;;
64842;SDS011;51310;52.198;5.422;2023-10-31T04:17:40;5.38;;;2.10;;
64842;SDS011;51310;52.198;5.422;2023-10-31T04:20:06;6.35;;;1.67;;
64842;SDS011;51310;52.198;5.422;2023-10-31T04:22:32;5.38;;;1.52;;
64842;SDS011;51310;52.198;5.422;2023-10-31T04:24:58;2.95;;;1.50;;
64842;SDS011;51310;52.198;5.422;2023-10-31T04:27:24;10.50;;;1.45;;
64842;SDS011;51310;52.198;5.422;2023-10-31T04:29:50;6.00;;;1.83;;
64842;SDS011;51310;52.198;5.422;2023-10-31T04:32:16;8.65;;;2.20;;
64842;SDS011;51310;52.198;5.422;2023-10-31T04:34:42;10.10;;;2.42;;
64842;SDS011;51310;52.198;5.422;2023-10-31T04:37:08;4.38;;;1.60;;
64842;SDS011;51310;52.198;5.422;2023-10-31T04:39:34;4.55;;;1.45;;
64842;SDS011;51310;52.198;5.422;2023-10-31T04:42:00;6.80;;;1.95;;
64842;SDS011;51310;52.198;5.422;2023-10-31T04:44:26;4.63;;;1.20;;
64842;SDS011;51310;52.198;5.422;2023-10-31T04:46:52;2.88;;;0.90;;
64842;SDS011;51310;52.198;5.422;2023-10-31T04:49:18;3.35;;;0.82;;
64842;SDS011;51310;52.198;5.422;2023-10-31T04:51:44;4.93;;;1.00;;
64842;SDS011;51310;52.198;5.422;2023-10-31T04:54:09;0.93;;;0.50;;
64842;SDS011;51310;52.198;5.422;2023-10-31T04:56:35;1.90;;;0.70;;
64842;SDS011;51310;52.198;5.422;2023-10-31T04:59:01;5.43;;;0.82;;
64842;SDS011;51310;52.198;5.422;2023-10-31T05:01:27;13.07;;;0.70;;
64842;SDS011;51310;52.198;5.422;2023-10-31T05:03:53;1.02;;;0.50;;
64842;SDS011;51310;52.198;5.422;2023-10-31T05:06:22;0.80;;;0.50;;
64842;SDS011;51310;52.198;5.422;2023-10-31T05:08:48;2.28;;;0.50;;
64842;SDS011;51310;52.198;5.422;2023-10-31T05:11:18;0.95;;;0.47;;
64842;SDS011;51310;52.198;5.422;2023-10-31T05:13:47;1.60;;;0.50;;
64842;SDS011;51310;52.198;5.422;2023-10-31T05:16:13;0.68;;;0.40;;
64842;SDS011;51310;52.198;5.422;2023-10-31T05:18:39;4.00;;;0.90;;
64842;SDS011;51310;52.198;5.422;2023-10-31T05:21:05;2.50;;;0.55;;
64842;SDS011;51310;52.198;5.422;2023-10-31T05:23:31;2.40;;;0.57;;
64842;SDS011;51310;52.198;5.422;2023-10-31T05:25:57;1.40;;;0.50;;
64842;SDS011;51310;52.198;5.422;2023-10-31T05:28:23;1.08;;;0.52;;
64842;SDS011;51310;52.198;5.422;2023-10-31T05:30:49;8.50;;;0.50;;
64842;SDS011;51310;52.198;5.422;2023-10-31T05:33:15;1.88;;;0.47;;
64842;SDS011;51310;52.198;5.422;2023-10-31T05:35:41;1.33;;;0.57;;
64842;SDS011;51310;52.198;5.422;2023-10-31T05:38:07;3.40;;;1.10;;
64842;SDS011;51310;52.198;5.422;2023-10-31T05:40:33;4.85;;;0.75;;
64842;SDS011;51310;52.198;5.422;2023-10-31T05:43:02;1.80;;;0.65;;
64842;SDS011;51310;52.198;5.422;2023-10-31T05:45:29;5.15;;;1.40;;
64842;SDS011;51310;52.198;5.422;2023-10-31T05:47:55;6.72;;;1.77;;
64842;SDS011;51310;52.198;5.422;2023-10-31T05:50:21;4.53;;;2.28;;
64842;SDS011;51310;52.198;5.422;2023-10-31T05:52:47;3.67;;;1.83;;
64842;SDS011;51310;52.198;5.422;2023-10-31T05:55:13;9.35;;;3.30;;
64842;SDS011;51310;52.198;5.422;2023-10-31T05:57:39;5.95;;;3.55;;
64842;SDS011;51310;52.198;5.422;2023-10-31T06:00:06;6.03;;;2.75;;
64842;SDS011;51310;52.198;5.422;2023-10-31T06:02:33;6.65;;;2.78;;
64842;SDS011;51310;52.198;5.422;2023-10-31T06:04:59;4.75;;;3.00;;
64842;SDS011;51310;52.198;5.422;2023-10-31T06:07:25;9.95;;;2.38;;
64842;SDS011;51310;52.198;5.422;2023-10-31T06:09:51;4.22;;;2.38;;
64842;SDS011;51310;52.198;5.422;2023-10-31T06:12:17;4.22;;;1.77;;
64842;SDS011;51310;52.198;5.422;2023-10-31T06:14:42;8.35;;;2.67;;
64842;SDS011;51310;52.198;5.422;2023-10-31T06:17:08;3.08;;;2.05;;
64842;SDS011;51310;52.198;5.422;2023-10-31T06:19:35;7.28;;;2.35;;
64842;SDS011;51310;52.198;5.422;2023-10-31T06:22:01;8.65;;;2.42;;
64842;SDS011;51310;52.198;5.422;2023-10-31T06:24:28;5.93;;;2.92;;
64842;SDS011;51310;52.198;5.422;2023-10-31T06:26:54;8.70;;;2.33;;
64842;SDS011;51310;52.198;5.422;2023-10-31T06:29:20;14.90;;;2.92;;
64842;SDS011;51310;52.198;5.422;2023-10-31T06:31:46;8.48;;;2.85;;
64842;SDS011;51310;52.198;5.422;2023-10-31T06:34:12;14.40;;;4.65;;
64842;SDS011;51310;52.198;5.422;2023-10-31T06:36:38;7.50;;;3.20;;
64842;SDS011;51310;52.198;5.422;2023-10-31T06:39:04;6.40;;;3.83;;
64842;SDS011;51310;52.198;5.422;2023-10-31T06:41:30;8.70;;;4.82;;
64842;SDS011;51310;52.198;5.422;2023-10-31T06:43:56;11.55;;;4.93;;
64842;SDS011;51310;52.198;5.422;2023-10-31T06:46:22;9.43;;;4.28;;
64842;SDS011;51310;52.198;5.422;2023-10-31T06:48:47;9.70;;;4.72;;
64842;SDS011;51310;52.198;5.422;2023-10-31T06:51:13;14.70;;;4.30;;
64842;SDS011;51310;52.198;5.422;2023-10-31T06:53:39;7.05;;;4.15;;
64842;SDS011;51310;52.198;5.422;2023-10-31T06:56:05;9.10;;;3.75;;
64842;SDS011;51310;52.198;5.422;2023-10-31T06:58:31;12.80;;;4.18;;
64842;SDS011;51310;52.198;5.422;2023-10-31T07:00:57;8.93;;;3.97;;
64842;SDS011;51310;52.198;5.422;2023-10-31T07:03:24;15.52;;;4.22;;
64842;SDS011;51310;52.198;5.422;2023-10-31T07:05:50;8.05;;;4.13;;
64842;SDS011;51310;52.198;5.422;2023-10-31T07:08:17;6.32;;;3.83;;
64842;SDS011;51310;52.198;5.422;2023-10-31T07:10:43;7.47;;;4.07;;
64842;SDS011;51310;52.198;5.422;2023-10-31T07:13:09;12.25;;;4.53;;
64842;SDS011;51310;52.198;5.422;2023-10-31T07:15:35;11.10;;;2.70;;
64842;SDS011;51310;52.198;5.422;2023-10-31T07:18:04;8.15;;;2.80;;
64842;SDS011;51310;52.198;5.422;2023-10-31T07:20:34;4.35;;;2.42;;
64842;SDS011;51310;52.198;5.422;2023-10-31T07:23:00;8.70;;;3.20;;
64842;SDS011;51310;52.198;5.422;2023-10-31T07:25:26;5.60;;;2.30;;
64842;SDS011;51310;52.198;5.422;2023-10-31T07:27:52;7.07;;;2.30;;
64842;SDS011;51310;52.198;5.422;2023-10-31T07:30:18;6.13;;;2.65;;
64842;SDS011;51310;52.198;5.422;2023-10-31T07:32:44;6.70;;;2.08;;
64842;SDS011;51310;52.198;5.422;2023-10-31T07:35:10;6.38;;;3.08;;
64842;SDS011;51310;52.198;5.422;2023-10-31T07:37:36;7.32;;;2.40;;
64842;SDS011;51310;52.198;5.422;2023-10-31T07:40:02;10.52;;;2.58;;
64842;SDS011;51310;52.198;5.422;2023-10-31T07:42:29;4.53;;;1.92;;
64842;SDS011;51310;52.198;5.422;2023-10-31T07:44:55;9.73;;;2.85;;
64842;SDS011;51310;52.198;5.422;2023-10-31T07:47:21;5.82;;;1.98;;
64842;SDS011;51310;52.198;5.422;2023-10-31T07:49:46;8.00;;;2.10;;
64842;SDS011;51310;52.198;5.422;2023-10-31T07:52:13;5.97;;;2.42;;
64842;SDS011;51310;52.198;5.422;2023-10-31T07:54:40;6.70;;;2.38;;
64842;SDS011;51310;52.198;5.422;2023-10-31T07:57:06;2.33;;;1.45;;
64842;SDS011;51310;52.198;5.422;2023-10-31T07:59:35;2.78;;;1.52;;
64842;SDS011;51310;52.198;5.422;2023-10-31T08:02:01;6.20;;;1.83;;
64842;SDS011;51310;52.198;5.422;2023-10-31T08:04:28;2.75;;;2.00;;
64842;SDS011;51310;52.198;5.422;2023-10-31T08:06:55;10.05;;;2.05;;
64842;SDS011;51310;52.198;5.422;2023-10-31T08:09:21;12.45;;;2.40;;
64842;SDS011;51310;52.198;5.422;2023-10-31T08:11:47;8.55;;;2.00;;
64842;SDS011;51310;52.198;5.422;2023-10-31T08:14:13;5.20;;;1.75;;
64842;SDS011;51310;52.198;5.422;2023-10-31T08:16:40;2.65;;;1.65;;
64842;SDS011;51310;52.198;5.422;2023-10-31T08:19:07;6.70;;;2.25;;
64842;SDS011;51310;52.198;5.422;2023-10-31T08:21:33;10.05;;;2.67;;
64842;SDS011;51310;52.198;5.422;2023-10-31T08:24:03;7.65;;;2.30;;
64842;SDS011;51310;52.198;5.422;2023-10-31T08:26:30;6.72;;;2.53;;
64842;SDS011;51310;52.198;5.422;2023-10-31T08:28:58;5.63;;;2.40;;
64842;SDS011;51310;52.198;5.422;2023-10-31T08:31:24;8.45;;;3.25;;
64842;SDS011;51310;52.198;5.422;2023-10-31T08:33:49;7.25;;;3.55;;
64842;SDS011;51310;52.198;5.422;2023-10-31T08:36:15;12.90;;;2.53;;
64842;SDS011;51310;52.198;5.422;2023-10-31T08:38:41;6.45;;;2.72;;
64842;SDS011;51310;52.198;5.422;2023-10-31T08:41:07;4.80;;;2.15;;
64842;SDS011;51310;52.198;5.422;2023-10-31T08:43:33;8.63;;;2.67;;
64842;SDS011;51310;52.198;5.422;2023-10-31T08:45:59;11.57;;;2.75;;
64842;SDS011;51310;52.198;5.422;2023-10-31T08:48:26;6.18;;;2.75;;
64842;SDS011;51310;52.198;5.422;2023-10-31T08:50:52;6.75;;;2.95;;
64842;SDS011;51310;52.198;5.422;2023-10-31T08:53:17;9.27;;;2.42;;
64842;SDS011;51310;52.198;5.422;2023-10-31T08:55:46;9.23;;;2.88;;
64842;SDS011;51310;52.198;5.422;2023-10-31T08:58:12;8.85;;;3.10;;
64842;SDS011;51310;52.198;5.422;2023-10-31T09:00:39;10.27;;;2.50;;
64842;SDS011;51310;52.198;5.422;2023-10-31T09:03:06;5.13;;;3.00;;
64842;SDS011;51310;52.198;5.422;2023-10-31T09:05:33;8.88;;;3.20;;
64842;SDS011;51310;52.198;5.422;2023-10-31T09:07:59;8.27;;;2.60;;
64842;SDS011;51310;52.198;5.422;2023-10-31T09:10:25;12.35;;;3.53;;
64842;SDS011;51310;52.198;5.422;2023-10-31T09:12:51;6.63;;;3.03;;
64842;SDS011;51310;52.198;5.422;2023-10-31T09:15:17;10.43;;;3.03;;
64842;SDS011;51310;52.198;5.422;2023-10-31T09:17:44;14.25;;;2.97;;
64842;SDS011;51310;52.198;5.422;2023-10-31T09:20:10;8.68;;;3.15;;
64842;SDS011;51310;52.198;5.422;2023-10-31T09:22:36;11.52;;;3.40;;
64842;SDS011;51310;52.198;5.422;2023-10-31T09:25:03;16.73;;;2.70;;
64842;SDS011;51310;52.198;5.422;2023-10-31T09:27:29;6.20;;;2.35;;
64842;SDS011;51310;52.198;5.422;2023-10-31T09:29:55;11.55;;;2.88;;
64842;SDS011;51310;52.198;5.422;2023-10-31T09:32:21;7.88;;;2.58;;
64842;SDS011;51310;52.198;5.422;2023-10-31T09:34:47;5.03;;;2.50;;
64842;SDS011;51310;52.198;5.422;2023-10-31T09:37:13;5.90;;;1.83;;
64842;SDS011;51310;52.198;5.422;2023-10-31T09:39:39;9.25;;;2.67;;
64842;SDS011;51310;52.198;5.422;2023-10-31T09:42:05;17.98;;;2.90;;
64842;SDS011;51310;52.198;5.422;2023-10-31T09:44:31;14.38;;;2.85;;
64842;SDS011;51310;52.198;5.422;2023-10-31T09:46:57;5.30;;;2.75;;
64842;SDS011;51310;52.198;5.422;2023-10-31T09:49:25;8.77;;;2.28;;
64842;SDS011;51310;52.198;5.422;2023-10-31T09:51:51;10.43;;;2.92;;
64842;SDS011;51310;52.198;5.422;2023-10-31T09:54:17;8.60;;;3.10;;
64842;SDS011;51310;52.198;5.422;2023-10-31T09:56:45;7.82;;;2.58;;
64842;SDS011;51310;52.198;5.422;2023-10-31T09:59:10;13.88;;;3.38;;
64842;SDS011;51310;52.198;5.422;2023-10-31T10:01:39;10.13;;;3.53;;
64842;SDS011;51310;52.198;5.422;2023-10-31T10:04:05;10.52;;;3.80;;
64842;SDS011;51310;52.198;5.422;2023-10-31T10:06:31;21.35;;;3.00;;
64842;SDS011;51310;52.198;5.422;2023-10-31T10:08:57;8.02;;;3.72;;
64842;SDS011;51310;52.198;5.422;2023-10-31T10:11:24;9.15;;;3.53;;
64842;SDS011;51310;52.198;5.422;2023-10-31T10:13:53;7.82;;;3.25;;
64842;SDS011;51310;52.198;5.422;2023-10-31T10:16:29;10.32;;;2.78;;
64842;SDS011;51310;52.198;5.422;2023-10-31T10:19:14;6.57;;;2.97;;
64842;SDS011;51310;52.198;5.422;2023-10-31T10:21:56;10.70;;;3.47;;
64842;SDS011;51310;52.198;5.422;2023-10-31T10:24:24;15.52;;;3.35;;
64842;SDS011;51310;52.198;5.422;2023-10-31T10:26:51;11.23;;;3.10;;
64842;SDS011;51310;52.198;5.422;2023-10-31T10:29:17;10.88;;;2.95;;
64842;SDS011;51310;52.198;5.422;2023-10-31T10:31:43;10.57;;;2.97;;
64842;SDS011;51310;52.198;5.422;2023-10-31T10:34:15;8.25;;;2.65;;
64842;SDS011;51310;52.198;5.422;2023-10-31T10:36:43;8.02;;;2.90;;
64842;SDS011;51310;52.198;5.422;2023-10-31T10:39:16;15.60;;;2.72;;
64842;SDS011;51310;52.198;5.422;2023-10-31T10:41:52;8.30;;;2.72;;
64842;SDS011;51310;52.198;5.422;2023-10-31T10:44:22;7.85;;;2.92;;
64842;SDS011;51310;52.198;5.422;2023-10-31T10:47:01;4.47;;;2.08;;
64842;SDS011;51310;52.198;5.422;2023-10-31T10:49:32;4.95;;;2.55;;
64842;SDS011;51310;52.198;5.422;2023-10-31T10:52:05;6.82;;;1.98;;
64842;SDS011;51310;52.198;5.422;2023-10-31T11:00:38;5.93;;;1.92;;
64842;SDS011;51310;52.198;5.422;2023-10-31T11:03:05;6.47;;;1.95;;
64842;SDS011;51310;52.198;5.422;2023-10-31T11:05:33;3.35;;;1.25;;
64842;SDS011;51310;52.198;5.422;2023-10-31T11:08:00;8.90;;;1.67;;
64842;SDS011;51310;52.198;5.422;2023-10-31T11:10:29;4.47;;;1.50;;
64842;SDS011;51310;52.198;5.422;2023-10-31T11:12:55;11.45;;;2.35;;
64842;SDS011;51310;52.198;5.422;2023-10-31T11:15:21;10.43;;;2.22;;
64842;SDS011;51310;52.198;5.422;2023-10-31T11:17:49;4.70;;;1.30;;
64842;SDS011;51310;52.198;5.422;2023-10-31T11:20:17;6.15;;;1.60;;
64842;SDS011;51310;52.198;5.422;2023-10-31T11:22:45;10.48;;;1.55;;
64842;SDS011;51310;52.198;5.422;2023-10-31T11:25:19;6.35;;;1.35;;
64842;SDS011;51310;52.198;5.422;2023-10-31T11:27:50;7.63;;;1.10;;
64842;SDS011;51310;52.198;5.422;2023-10-31T11:32:55;7.97;;;1.30;;
64842;SDS011;51310;52.198;5.422;2023-10-31T11:35:24;4.75;;;1.00;;
64842;SDS011;51310;52.198;5.422;2023-10-31T11:38:01;1.85;;;0.73;;
64842;SDS011;51310;52.198;5.422;2023-10-31T11:40:34;6.15;;;1.20;;
64842;SDS011;51310;52.198;5.422;2023-10-31T11:43:03;5.30;;;1.40;;
64842;SDS011;51310;52.198;5.422;2023-10-31T11:45:35;4.47;;;1.30;;
64842;SDS011;51310;52.198;5.422;2023-10-31T11:48:05;7.68;;;1.60;;
64842;SDS011;51310;52.198;5.422;2023-10-31T11:50:32;7.68;;;1.50;;
64842;SDS011;51310;52.198;5.422;2023-10-31T11:55:45;4.40;;;1.33;;
64842;SDS011;51310;52.198;5.422;2023-10-31T11:58:19;4.70;;;2.22;;
64842;SDS011;51310;52.198;5.422;2023-10-31T12:00:48;7.07;;;2.28;;
64842;SDS011;51310;52.198;5.422;2023-10-31T12:03:18;9.75;;;1.80;;
64842;SDS011;51310;52.198;5.422;2023-10-31T12:05:52;7.85;;;1.85;;
64842;SDS011;51310;52.198;5.422;2023-10-31T12:08:27;8.02;;;1.77;;
64842;SDS011;51310;52.198;5.422;2023-10-31T12:11:11;7.05;;;1.73;;
64842;SDS011;51310;52.198;5.422;2023-10-31T12:13:52;11.30;;;2.10;;
64842;SDS011;51310;52.198;5.422;2023-10-31T12:16:30;5.43;;;2.03;;
64842;SDS011;51310;52.198;5.422;2023-10-31T12:21:34;3.00;;;1.30;;
64842;SDS011;51310;52.198;5.422;2023-10-31T12:24:15;4.40;;;0.88;;
64842;SDS011;51310;52.198;5.422;2023-10-31T12:26:44;5.63;;;1.80;;
64842;SDS011;51310;52.198;5.422;2023-10-31T12:29:12;8.75;;;2.20;;
64842;SDS011;51310;52.198;5.422;2023-10-31T12:31:47;2.67;;;1.25;;
64842;SDS011;51310;52.198;5.422;2023-10-31T12:34:19;13.30;;;3.97;;
64842;SDS011;51310;52.198;5.422;2023-10-31T12:36:49;3.20;;;1.13;;
64842;SDS011;51310;52.198;5.422;2023-10-31T12:39:24;3.03;;;1.42;;
64842;SDS011;51310;52.198;5.422;2023-10-31T12:41:51;7.07;;;1.20;;
64842;SDS011;51310;52.198;5.422;2023-10-31T12:44:25;3.75;;;1.40;;
64842;SDS011;51310;52.198;5.422;2023-10-31T12:46:52;8.38;;;2.15;;
64842;SDS011;51310;52.198;5.422;2023-10-31T12:49:19;6.40;;;2.65;;
64842;SDS011;51310;52.198;5.422;2023-10-31T12:52:04;7.85;;;3.95;;
64842;SDS011;51310;52.198;5.422;2023-10-31T12:54:34;14.75;;;6.82;;
64842;SDS011;51310;52.198;5.422;2023-10-31T12:57:04;14.20;;;6.32;;
64842;SDS011;51310;52.198;5.422;2023-10-31T12:59:33;14.80;;;7.38;;
64842;SDS011;51310;52.198;5.422;2023-10-31T13:02:03;18.70;;;7.53;;
64842;SDS011;51310;52.198;5.422;2023-10-31T13:04:31;18.05;;;9.55;;
64842;SDS011;51310;52.198;5.422;2023-10-31T13:06:59;18.00;;;8.55;;
64842;SDS011;51310;52.198;5.422;2023-10-31T13:09:28;31.85;;;9.23;;
64842;SDS011;51310;52.198;5.422;2023-10-31T13:12:01;18.95;;;9.85;;
64842;SDS011;51310;52.198;5.422;2023-10-31T13:14:30;27.00;;;11.02;;
64842;SDS011;51310;52.198;5.422;2023-10-31T13:16:56;28.30;;;10.77;;
64842;SDS011;51310;52.198;5.422;2023-10-31T13:19:23;20.15;;;9.00;;
64842;SDS011;51310;52.198;5.422;2023-10-31T13:21:49;22.45;;;10.82;;
64842;SDS011;51310;52.198;5.422;2023-10-31T13:24:16;18.88;;;10.10;;
64842;SDS011;51310;52.198;5.422;2023-10-31T13:26:42;20.95;;;10.23;;
64842;SDS011;51310;52.198;5.422;2023-10-31T13:29:09;19.40;;;8.93;;
64842;SDS011;51310;52.198;5.422;2023-10-31T13:31:36;24.38;;;11.43;;
64842;SDS011;51310;52.198;5.422;2023-10-31T13:34:02;25.52;;;11.35;;
64842;SDS011;51310;52.198;5.422;2023-10-31T13:36:29;28.23;;;12.50;;
64842;SDS011;51310;52.198;5.422;2023-10-31T13:38:54;28.23;;;14.90;;
64842;SDS011;51310;52.198;5.422;2023-10-31T13:41:20;34.92;;;14.10;;
64842;SDS011;51310;52.198;5.422;2023-10-31T13:43:47;31.40;;;13.98;;
64842;SDS011;51310;52.198;5.422;2023-10-31T13:46:13;29.08;;;14.20;;
64842;SDS011;51310;52.198;5.422;2023-10-31T13:48:40;27.90;;;15.13;;
64842;SDS011;51310;52.198;5.422;2023-10-31T13:51:06;32.92;;;16.38;;
64842;SDS011;51310;52.198;5.422;2023-10-31T13:53:32;35.38;;;17.00;;
64842;SDS011;51310;52.198;5.422;2023-10-31T13:55:57;45.30;;;18.77;;
64842;SDS011;51310;52.198;5.422;2023-10-31T13:58:23;34.70;;;16.83;;
64842;SDS011;51310;52.198;5.422;2023-10-31T14:00:49;38.38;;;17.83;;
64842;SDS011;51310;52.198;5.422;2023-10-31T14:03:15;34.83;;;15.80;;
64842;SDS011;51310;52.198;5.422;2023-10-31T14:05:41;44.08;;;16.85;;
64842;SDS011;51310;52.198;5.422;2023-10-31T14:08:07;31.73;;;18.25;;
64842;SDS011;51310;52.198;5.422;2023-10-31T14:10:34;32.10;;;16.77;;
64842;SDS011;51310;52.198;5.422;2023-10-31T14:13:00;25.23;;;13.63;;
64842;SDS011;51310;52.198;5.422;2023-10-31T14:15:26;32.53;;;14.40;;
64842;SDS011;51310;52.198;5.422;2023-10-31T14:17:51;28.85;;;14.32;;
64842;SDS011;51310;52.198;5.422;2023-10-31T14:20:17;30.00;;;13.98;;
64842;SDS011;51310;52.198;5.422;2023-10-31T14:22:47;23.65;;;12.68;;
64842;SDS011;51310;52.198;5.422;2023-10-31T14:25:14;21.42;;;11.55;;
64842;SDS011;51310;52.198;5.422;2023-10-31T14:27:40;20.85;;;11.57;;
64842;SDS011;51310;52.198;5.422;2023-10-31T14:30:08;21.17;;;11.70;;
64842;SDS011;51310;52.198;5.422;2023-10-31T14:32:36;21.38;;;12.00;;
64842;SDS011;51310;52.198;5.422;2023-10-31T14:35:02;20.75;;;11.18;;
64842;SDS011;51310;52.198;5.422;2023-10-31T14:37:29;24.75;;;12.65;;
64842;SDS011;51310;52.198;5.422;2023-10-31T14:39:55;24.88;;;11.60;;
64842;SDS011;51310;52.198;5.422;2023-10-31T14:42:21;24.08;;;11.95;;
64842;SDS011;51310;52.198;5.422;2023-10-31T14:44:47;21.58;;;10.85;;
64842;SDS011;51310;52.198;5.422;2023-10-31T14:47:13;24.58;;;11.98;;
64842;SDS011;51310;52.198;5.422;2023-10-31T14:49:39;23.70;;;11.50;;
64842;SDS011;51310;52.198;5.422;2023-10-31T14:52:05;24.92;;;13.32;;
64842;SDS011;51310;52.198;5.422;2023-10-31T14:54:34;22.17;;;11.40;;